Ana Sayfa
METAR-TAF:

METAR-TAF

Havaalanları :

Fort Hood / Killeen, Teksas, Amerika Birleşik Devletleri

Enlem: 31-06N, Boylam: 097-20W, yükseklik: 283 m

Güncel hava durumu gözlemi

Rapor saat 04:58 UTC de 1 saat ve 6 dakika önce yapıldı.
Rüzgar doğudan 5 kt
Sıcaklık 18°C
Nem 49%
Basınç 1019 hPa
Görüş mesafesi: 16.1 km
6000 ft yükseklikte çok bulutlu

METAR: KHLR 300458Z AUTO 10005KT 10SM OVC060 18/07 A3009 RMK AO2 SLP182 T01820074

Saat: 00:04 (06:04 UTC)


TAF: eksik

4.000'den fazla havaalanı için hava durumu gözlemleri ve tahminleri (METAR ve TAF raporları).

Kullanılabilir istasyonlar harita üzerinde sarı ve kırmızı noktalarla gösterilir.

İstasyonun adını görmek için fareyi noktanın üzerinde gezdirin.

Sonrasında hava gözlem ve tahminlerini görmek için tıklayın.

Haritayı değiştirmek için: yaklaştırmak için siyah artı işaretli yeşil düğmeye ve uzaklaştırmak için de eksi işaretli düğmeye hızla tıklayın; bitişik haritalar için yeşil okları kullanın.


METAR-TAF: